Time;durP1;ratioP1;P1;durP2;ratioP2;P2;SDS_P1;SDS_P2;PMS_P1;PMS_P2;Temp;Humidity;BMP_temperature;BMP_pressure;BME280_temperature;BME280_humidity;BME280_pressure;Samples;Min_cycle;Max_cycle;Signal;HPM_P1;HPM_P2
2021/11/30 00:01:27;;;;;;;13.70;10.68;;;2.20;99.90;;;;;;5019636;28;20282;-56
2021/11/30 00:03:55;;;;;;;13.95;11.10;;;2.20;99.90;;;;;;5019943;28;20207;-49
2021/11/30 00:06:22;;;;;;;18.08;10.90;;;2.20;99.90;;;;;;5019193;28;20270;-52
2021/11/30 00:08:57;;;;;;;16.95;9.93;;;2.20;99.90;;;;;;5042714;28;20200;-55
2021/11/30 00:11:24;;;;;;;14.75;11.50;;;2.20;99.90;;;;;;5044910;28;20255;-55
2021/11/30 00:13:51;;;;;;;14.55;9.40;;;2.20;99.90;;;;;;5039058;28;20411;-54
2021/11/30 00:16:18;;;;;;;18.77;11.13;;;2.20;99.90;;;;;;5039078;28;20278;-52
2021/11/30 00:18:46;;;;;;;16.40;10.43;;;2.20;99.90;;;;;;5038970;28;20262;-52
2021/11/30 00:21:13;;;;;;;14.85;10.00;;;2.20;99.90;;;;;;5039161;28;20208;-51
2021/11/30 00:23:41;;;;;;;15.77;10.27;;;2.20;99.90;;;;;;5039297;28;20242;-51
2021/11/30 00:26:08;;;;;;;14.23;10.48;;;2.20;99.90;;;;;;5041203;28;20220;-54
2021/11/30 00:28:36;;;;;;;15.40;9.15;;;2.10;99.90;;;;;;5032054;28;20196;-50
2021/11/30 00:31:03;;;;;;;19.20;13.07;;;2.20;99.90;;;;;;5027946;28;20197;-52
2021/11/30 00:33:31;;;;;;;12.40;10.13;;;2.10;99.90;;;;;;5032861;28;20242;-56
2021/11/30 00:35:58;;;;;;;12.90;9.10;;;2.10;99.90;;;;;;5037361;28;20200;-53
2021/11/30 00:38:27;;;;;;;14.27;10.77;;;2.10;99.90;;;;;;5043053;28;20334;-53
2021/11/30 00:40:54;;;;;;;12.73;9.75;;;2.10;99.90;;;;;;5034476;28;20243;-51
2021/11/30 00:43:24;;;;;;;15.48;10.60;;;2.10;99.90;;;;;;5042061;28;20200;-51
2021/11/30 00:45:57;;;;;;;15.73;9.98;;;2.10;99.90;;;;;;5042631;28;20247;-54
2021/11/30 00:48:31;;;;;;;11.75;8.27;;;2.10;99.90;;;;;;5042031;28;20386;-50
2021/11/30 00:51:05;;;;;;;13.95;9.75;;;2.00;99.90;;;;;;5042599;28;20250;-57
2021/11/30 00:53:33;;;;;;;14.00;9.77;;;2.00;99.90;;;;;;5042311;28;20196;-56
2021/11/30 00:56:00;;;;;;;11.38;8.63;;;2.00;99.90;;;;;;5042233;28;20254;-53
2021/11/30 00:58:28;;;;;;;17.98;9.80;;;2.00;99.90;;;;;;5042394;28;20316;-51
2021/11/30 01:00:55;;;;;;;14.30;9.82;;;1.90;99.90;;;;;;5042162;28;20220;-55
2021/11/30 01:03:23;;;;;;;11.75;8.07;;;1.90;99.90;;;;;;5042273;28;20226;-52
2021/11/30 01:05:50;;;;;;;10.13;7.30;;;2.00;99.90;;;;;;5041988;28;20220;-52
2021/11/30 01:08:18;;;;;;;12.75;8.82;;;2.00;99.90;;;;;;5041730;28;20200;-56
2021/11/30 01:10:45;;;;;;;12.07;8.35;;;2.00;99.90;;;;;;5033945;28;20262;-56
2021/11/30 01:13:13;;;;;;;14.93;8.25;;;2.00;99.90;;;;;;5041859;28;20423;-56
2021/11/30 01:15:41;;;;;;;11.73;8.23;;;2.00;99.90;;;;;;5042195;28;20223;-58
2021/11/30 01:18:09;;;;;;;8.55;6.75;;;2.00;99.90;;;;;;5041453;28;20206;-54
2021/11/30 01:20:36;;;;;;;11.65;7.32;;;2.00;99.90;;;;;;5042107;28;20224;-56
2021/11/30 01:23:05;;;;;;;9.50;7.22;;;2.00;99.90;;;;;;5041665;28;20207;-54
2021/11/30 01:25:34;;;;;;;8.63;6.05;;;2.00;99.90;;;;;;5043476;28;20535;-59
2021/11/30 01:28:02;;;;;;;8.23;6.05;;;2.00;99.90;;;;;;5046225;28;20196;-59
2021/11/30 01:30:30;;;;;;;7.35;5.85;;;1.90;99.90;;;;;;5042415;28;20308;-52
2021/11/30 01:32:58;;;;;;;8.43;6.45;;;1.90;99.90;;;;;;5041804;28;20243;-56
2021/11/30 01:35:25;;;;;;;7.07;5.68;;;2.00;99.90;;;;;;5041372;28;20312;-54
2021/11/30 01:37:53;;;;;;;9.30;6.10;;;2.00;99.90;;;;;;5041275;28;20450;-53
2021/11/30 01:40:23;;;;;;;8.45;6.18;;;2.00;99.90;;;;;;5041380;28;20442;-54
2021/11/30 01:42:52;;;;;;;9.45;6.28;;;2.00;99.90;;;;;;5041687;28;20197;-52
2021/11/30 01:45:30;;;;;;;8.38;6.07;;;2.00;99.90;;;;;;5041626;28;20200;-53
2021/11/30 01:50:33;;;;;;;7.13;5.10;;;1.90;99.90;;;;;;5041593;28;20212;-55
2021/11/30 01:53:00;;;;;;;6.97;5.05;;;2.00;99.90;;;;;;5041208;28;20200;-54
2021/11/30 01:55:31;;;;;;;8.07;6.05;;;1.90;99.90;;;;;;5041795;28;20410;-52
2021/11/30 01:58:03;;;;;;;11.80;6.80;;;1.90;99.90;;;;;;5041132;28;20561;-54
2021/11/30 02:00:34;;;;;;;6.60;5.20;;;1.80;99.90;;;;;;5041283;28;20232;-54
2021/11/30 02:03:06;;;;;;;8.40;5.75;;;1.80;99.90;;;;;;5041303;28;20196;-56
2021/11/30 02:05:36;;;;;;;6.70;5.82;;;1.70;99.90;;;;;;5041142;28;20561;-56
2021/11/30 02:08:05;;;;;;;7.05;5.32;;;1.60;99.90;;;;;;5041314;28;20200;-56
2021/11/30 02:10:35;;;;;;;6.75;4.90;;;1.60;99.90;;;;;;5041147;28;20292;-54
2021/11/30 02:13:03;;;;;;;6.47;5.25;;;1.60;99.90;;;;;;5043245;28;20550;-57
2021/11/30 02:15:31;;;;;;;10.00;7.05;;;1.60;99.90;;;;;;5042397;28;20288;-60
2021/11/30 02:18:01;;;;;;;10.05;6.50;;;1.70;99.90;;;;;;5042193;28;20422;-57
2021/11/30 02:20:31;;;;;;;8.68;7.03;;;1.70;99.90;;;;;;5042041;28;20570;-55
2021/11/30 02:22:58;;;;;;;8.20;6.18;;;1.70;99.90;;;;;;5041375;28;20200;-51
2021/11/30 02:25:26;;;;;;;9.15;7.47;;;1.70;99.90;;;;;;5042606;28;20231;-56
2021/11/30 02:27:53;;;;;;;9.63;6.40;;;1.80;99.90;;;;;;5042781;28;20197;-52
2021/11/30 02:30:20;;;;;;;7.20;6.50;;;1.60;99.90;;;;;;5032378;28;20597;-51
2021/11/30 02:32:48;;;;;;;8.98;6.63;;;1.60;99.90;;;;;;5040256;28;20195;-50
2021/11/30 02:35:16;;;;;;;9.88;6.50;;;1.60;99.90;;;;;;5040933;28;20447;-54
2021/11/30 02:37:49;;;;;;;7.20;6.50;;;1.60;99.90;;;;;;5040433;28;20206;-51
2021/11/30 02:40:16;;;;;;;10.75;7.10;;;1.60;99.90;;;;;;5040058;28;20286;-53
2021/11/30 02:42:44;;;;;;;10.95;7.93;;;1.60;99.90;;;;;;5040727;28;20204;-50
2021/11/30 02:45:11;;;;;;;11.35;6.68;;;1.50;99.90;;;;;;5040012;28;20549;-50
2021/11/30 02:47:39;;;;;;;9.25;6.40;;;1.40;99.90;;;;;;5039936;28;20224;-55
2021/11/30 02:50:08;;;;;;;9.15;7.03;;;1.40;99.90;;;;;;5039256;28;20220;-54
2021/11/30 02:52:37;;;;;;;6.75;5.50;;;1.40;99.90;;;;;;5040479;28;20274;-53
2021/11/30 02:55:04;;;;;;;7.75;6.95;;;1.40;99.90;;;;;;5040326;28;20258;-53
2021/11/30 02:57:32;;;;;;;10.15;7.78;;;1.40;99.90;;;;;;5039960;28;20437;-49
2021/11/30 02:59:59;;;;;;;10.40;8.95;;;1.50;99.90;;;;;;5040113;28;20220;-51
2021/11/30 03:02:28;;;;;;;12.35;6.65;;;1.50;99.90;;;;;;5039925;28;20270;-50
2021/11/30 03:04:59;;;;;;;9.52;7.45;;;1.60;99.90;;;;;;5040221;28;20200;-54
2021/11/30 03:07:30;;;;;;;9.63;7.80;;;1.70;99.90;;;;;;5040329;28;20247;-56
2021/11/30 03:09:57;;;;;;;11.02;6.93;;;1.80;99.90;;;;;;5040531;28;20216;-52
2021/11/30 03:12:25;;;;;;;9.25;7.95;;;1.80;99.90;;;;;;5040481;28;20192;-57
2021/11/30 03:14:52;;;;;;;9.75;6.72;;;1.80;99.90;;;;;;5033467;28;20196;-52
2021/11/30 03:17:20;;;;;;;9.88;6.70;;;1.80;99.90;;;;;;5035920;28;20200;-53
2021/11/30 03:19:47;;;;;;;9.95;7.57;;;1.90;99.90;;;;;;5019792;28;20232;-57
2021/11/30 03:22:15;;;;;;;9.63;7.60;;;1.90;99.90;;;;;;5020183;28;20204;-56
2021/11/30 03:24:42;;;;;;;13.95;8.70;;;2.00;99.90;;;;;;5020052;28;20209;-53
2021/11/30 03:27:09;;;;;;;12.60;8.02;;;2.00;99.90;;;;;;5019660;28;20459;-52
2021/11/30 03:29:37;;;;;;;13.38;7.82;;;2.10;99.90;;;;;;5020115;28;20220;-54
2021/11/30 03:34:35;;;;;;;14.13;8.27;;;2.30;99.90;;;;;;5020559;28;20228;-58
2021/11/30 03:37:06;;;;;;;12.10;9.75;;;2.40;99.90;;;;;;5021258;28;20224;-57
2021/11/30 03:39:34;;;;;;;13.25;9.73;;;2.50;99.90;;;;;;5020215;28;20710;-50
2021/11/30 03:42:02;;;;;;;14.10;8.98;;;2.50;99.90;;;;;;5019879;28;20213;-52
2021/11/30 03:44:30;;;;;;;13.95;9.27;;;2.60;99.90;;;;;;5019464;28;20530;-51
2021/11/30 03:46:59;;;;;;;14.43;9.80;;;2.70;99.90;;;;;;5019615;28;20419;-53
2021/11/30 03:49:27;;;;;;;17.15;11.02;;;2.90;99.90;;;;;;5019307;28;20217;-52
2021/11/30 03:51:56;;;;;;;14.40;11.15;;;2.90;99.90;;;;;;5020109;28;20273;-54
2021/11/30 03:54:24;;;;;;;12.18;8.40;;;2.90;99.90;;;;;;5019362;28;20204;-54
2021/11/30 03:56:51;;;;;;;13.68;8.63;;;3.00;99.90;;;;;;5019800;28;20200;-53
2021/11/30 03:59:19;;;;;;;16.83;9.80;;;2.80;99.90;;;;;;5019968;28;20278;-51
2021/11/30 04:01:46;;;;;;;17.77;11.82;;;2.70;99.90;;;;;;5023203;28;20523;-54
2021/11/30 04:04:25;;;;;;;18.35;10.95;;;2.70;99.90;;;;;;5023821;28;20349;-51
2021/11/30 04:06:55;;;;;;;17.60;10.55;;;2.80;99.90;;;;;;5022941;28;20225;-55
2021/11/30 04:09:24;;;;;;;10.85;9.02;;;2.80;99.90;;;;;;5023334;28;20262;-55
2021/11/30 04:11:51;;;;;;;15.75;10.63;;;2.50;99.90;;;;;;5023323;28;20239;-56
2021/11/30 04:14:24;;;;;;;15.13;10.85;;;2.50;99.90;;;;;;5023759;28;20196;-57
2021/11/30 04:16:51;;;;;;;13.10;9.88;;;2.50;99.90;;;;;;5023640;28;20201;-58
2021/11/30 04:19:19;;;;;;;16.98;10.98;;;2.40;99.90;;;;;;5023217;28;20228;-52
2021/11/30 04:21:46;;;;;;;14.82;9.45;;;2.40;99.90;;;;;;5023600;28;20566;-57
2021/11/30 04:24:14;;;;;;;13.90;10.25;;;2.30;99.90;;;;;;5022790;28;20200;-54
2021/11/30 04:26:42;;;;;;;12.23;8.68;;;2.30;99.90;;;;;;5023376;28;20225;-53
2021/11/30 04:29:10;;;;;;;12.77;8.15;;;2.40;99.90;;;;;;5022604;28;20613;-57
2021/11/30 04:31:37;;;;;;;16.58;9.85;;;2.20;99.90;;;;;;5023367;28;20220;-57
2021/11/30 04:34:05;;;;;;;11.75;8.90;;;2.10;99.90;;;;;;5023231;28;20225;-53
2021/11/30 04:36:33;;;;;;;10.85;8.15;;;2.10;99.90;;;;;;5022712;28;20201;-54
2021/11/30 04:39:04;;;;;;;11.45;8.25;;;2.20;99.90;;;;;;5022437;28;20221;-52
2021/11/30 04:41:32;;;;;;;12.05;9.65;;;2.40;99.90;;;;;;5022477;28;20259;-54
2021/11/30 04:44:00;;;;;;;9.50;8.13;;;2.60;99.90;;;;;;5022964;28;20255;-51
2021/11/30 04:46:38;;;;;;;10.57;6.95;;;2.60;99.90;;;;;;5022413;28;20229;-54
2021/11/30 04:49:27;;;;;;;11.25;7.35;;;2.70;99.90;;;;;;5022574;28;20217;-51
2021/11/30 04:51:54;;;;;;;13.13;7.97;;;2.50;99.90;;;;;;5022820;28;20197;-51
2021/11/30 04:54:22;;;;;;;9.93;6.70;;;2.40;99.90;;;;;;5022522;28;20248;-54
2021/11/30 04:56:52;;;;;;;12.25;7.63;;;2.40;99.90;;;;;;5022526;28;20247;-49
2021/11/30 04:59:20;;;;;;;8.40;6.45;;;2.50;99.90;;;;;;5021951;28;20666;-51
2021/11/30 05:01:48;;;;;;;9.27;6.30;;;2.60;99.90;;;;;;5036235;28;20211;-54
2021/11/30 05:04:17;;;;;;;11.13;7.63;;;2.50;99.90;;;;;;5034130;28;20277;-51
2021/11/30 05:06:45;;;;;;;12.48;8.52;;;2.40;99.90;;;;;;5023024;28;20278;-50
2021/11/30 05:09:12;;;;;;;12.90;8.85;;;2.50;99.90;;;;;;5030329;28;20216;-50
2021/11/30 05:11:40;;;;;;;10.65;8.35;;;2.60;99.90;;;;;;5040345;28;20247;-53
2021/11/30 05:14:07;;;;;;;13.88;8.40;;;2.50;99.90;;;;;;5041838;28;20250;-49
2021/11/30 05:16:35;;;;;;;13.13;9.55;;;2.30;99.90;;;;;;5042100;28;20277;-56
2021/11/30 05:19:03;;;;;;;10.32;8.07;;;2.30;99.90;;;;;;5041853;28;20239;-52
2021/11/30 05:21:30;;;;;;;13.75;9.70;;;2.40;99.90;;;;;;5041805;28;20238;-54
2021/11/30 05:24:04;;;;;;;12.45;8.73;;;2.40;99.90;;;;;;5042082;28;20219;-55
2021/11/30 05:26:32;;;;;;;11.10;8.25;;;2.40;99.90;;;;;;5041874;28;20221;-54
2021/11/30 05:29:00;;;;;;;11.43;8.60;;;2.30;99.90;;;;;;5041613;28;20307;-51
2021/11/30 05:31:27;;;;;;;10.38;9.15;;;2.40;99.90;;;;;;5041864;28;20232;-51
2021/11/30 05:33:55;;;;;;;10.93;8.30;;;2.40;99.90;;;;;;5041924;28;20459;-50
2021/11/30 05:36:22;;;;;;;10.57;7.75;;;2.50;99.90;;;;;;5041843;28;20196;-52
2021/11/30 05:38:50;;;;;;;15.15;10.48;;;2.50;99.90;;;;;;5041244;28;20204;-49
2021/11/30 05:41:18;;;;;;;15.90;9.70;;;2.60;99.90;;;;;;5041169;28;20266;-56
2021/11/30 05:43:45;;;;;;;11.02;8.38;;;2.70;99.90;;;;;;5039066;28;20204;-57
2021/11/30 05:46:13;;;;;;;8.95;7.10;;;2.50;99.90;;;;;;5036418;28;20223;-56
2021/11/30 05:48:41;;;;;;;14.23;9.65;;;2.60;99.90;;;;;;5031811;28;20326;-58
2021/11/30 05:51:08;;;;;;;15.45;9.50;;;2.70;99.90;;;;;;5021460;28;20507;-53
2021/11/30 05:53:36;;;;;;;15.45;9.73;;;2.70;99.90;;;;;;5024318;28;20251;-56
2021/11/30 05:56:05;;;;;;;12.57;8.48;;;2.70;99.90;;;;;;5036037;28;20252;-55
2021/11/30 05:58:36;;;;;;;10.95;8.20;;;2.60;99.90;;;;;;5021419;28;20224;-49
2021/11/30 06:01:09;;;;;;;20.75;10.70;;;2.60;99.90;;;;;;5021371;28;20200;-52
2021/11/30 06:06:17;;;;;;;17.13;8.75;;;2.40;99.90;;;;;;5021132;28;20208;-49
2021/11/30 06:08:45;;;;;;;16.20;9.07;;;2.40;99.90;;;;;;5020891;28;20295;-54
2021/11/30 06:11:12;;;;;;;15.27;10.68;;;2.30;99.90;;;;;;5021794;28;20197;-50
2021/11/30 06:13:40;;;;;;;16.48;11.35;;;2.00;99.90;;;;;;5021003;28;20197;-49
2021/11/30 06:16:07;;;;;;;17.80;11.73;;;1.80;99.90;;;;;;5022362;28;20730;-55
2021/11/30 06:18:35;;;;;;;17.55;11.35;;;1.70;99.90;;;;;;5022788;28;20232;-55
2021/11/30 06:21:02;;;;;;;19.10;11.70;;;1.70;99.90;;;;;;5038144;28;20258;-57
2021/11/30 06:23:30;;;;;;;15.02;10.30;;;1.60;99.90;;;;;;5042752;28;20534;-54
2021/11/30 06:25:57;;;;;;;17.63;12.25;;;1.50;99.90;;;;;;5042265;28;20244;-57
2021/11/30 06:28:26;;;;;;;18.05;13.00;;;1.60;99.90;;;;;;5041880;28;20270;-54
2021/11/30 06:30:53;;;;;;;14.98;11.38;;;1.60;99.90;;;;;;5041819;28;20220;-57
2021/11/30 06:33:22;;;;;;;17.38;11.05;;;1.60;99.90;;;;;;5033598;28;20293;-56
2021/11/30 06:35:49;;;;;;;14.38;10.93;;;1.80;99.90;;;;;;5038533;28;20207;-58
2021/11/30 06:38:16;;;;;;;20.52;12.30;;;1.90;99.90;;;;;;5034792;28;20569;-52
2021/11/30 06:40:44;;;;;;;21.17;13.75;;;2.00;99.90;;;;;;5035804;28;20228;-57
2021/11/30 06:43:11;;;;;;;14.93;12.20;;;2.20;99.90;;;;;;5036085;28;20273;-56
2021/11/30 06:45:38;;;;;;;20.20;13.00;;;2.30;99.90;;;;;;5041348;28;20237;-54
2021/11/30 06:48:06;;;;;;;20.05;12.95;;;2.30;99.90;;;;;;5032101;28;20232;-57
2021/11/30 06:50:34;;;;;;;21.80;14.82;;;2.40;99.90;;;;;;5040265;28;20249;-58
2021/11/30 06:53:02;;;;;;;22.88;12.00;;;2.20;99.90;;;;;;5041221;28;20216;-52
2021/11/30 06:55:29;;;;;;;12.07;10.15;;;2.20;99.90;;;;;;5032912;28;20545;-59
2021/11/30 06:57:56;;;;;;;18.75;11.30;;;2.40;99.90;;;;;;5043059;28;20246;-57
2021/11/30 07:00:25;;;;;;;14.48;10.15;;;2.40;99.90;;;;;;5041969;28;20738;-54
2021/11/30 07:02:52;;;;;;;18.23;12.20;;;2.20;99.90;;;;;;5023700;28;20204;-56
2021/11/30 07:05:24;;;;;;;15.20;10.63;;;2.30;99.90;;;;;;5041224;28;20390;-56
2021/11/30 07:13:25;;;;;;;18.80;11.43;;;2.40;99.90;;;;;;5040170;28;20196;-57
2021/11/30 07:15:58;;;;;;;16.88;11.50;;;2.50;99.90;;;;;;5038966;28;20272;-55
2021/11/30 07:18:27;;;;;;;16.48;12.45;;;2.50;99.90;;;;;;5031784;28;20258;-59
2021/11/30 07:20:55;;;;;;;15.48;10.00;;;2.50;99.90;;;;;;5021689;28;20314;-53
2021/11/30 07:23:23;;;;;;;16.98;11.30;;;2.80;99.90;;;;;;5022464;28;20504;-57
2021/11/30 07:25:52;;;;;;;13.82;9.52;;;2.90;99.90;;;;;;5020674;28;20212;-54
2021/11/30 07:28:29;;;;;;;15.10;10.98;;;2.90;99.90;;;;;;5021521;28;20221;-57
2021/11/30 07:31:05;;;;;;;13.10;8.60;;;3.10;99.90;;;;;;5021377;28;20593;-53
2021/11/30 07:33:35;;;;;;;13.52;10.07;;;3.20;99.90;;;;;;5020676;28;20223;-56
2021/11/30 07:36:04;;;;;;;15.32;9.98;;;3.10;99.90;;;;;;5036663;28;20200;-57
2021/11/30 07:38:33;;;;;;;13.05;8.60;;;2.80;99.90;;;;;;5022907;28;20239;-52
2021/11/30 07:41:00;;;;;;;12.85;10.55;;;2.80;99.90;;;;;;5021654;28;20208;-56
2021/11/30 07:43:28;;;;;;;13.93;9.55;;;2.90;99.90;;;;;;5021052;28;20654;-57
2021/11/30 07:45:55;;;;;;;14.05;9.20;;;3.10;99.90;;;;;;5022289;28;20201;-54
2021/11/30 07:48:23;;;;;;;14.48;10.45;;;3.20;99.90;;;;;;5021399;28;20340;-55
2021/11/30 07:50:51;;;;;;;11.60;9.25;;;3.00;99.90;;;;;;5022202;28;20673;-56
2021/11/30 07:53:19;;;;;;;10.95;9.07;;;3.10;99.90;;;;;;5021799;28;20209;-57
2021/11/30 07:55:46;;;;;;;12.85;8.55;;;3.20;99.90;;;;;;5021465;28;20263;-51
2021/11/30 07:58:14;;;;;;;11.18;8.75;;;3.40;99.90;;;;;;5021854;28;20201;-54
2021/11/30 08:00:41;;;;;;;13.07;8.73;;;3.50;99.90;;;;;;5021436;28;20221;-59
2021/11/30 08:03:09;;;;;;;14.98;11.25;;;3.40;99.90;;;;;;5020811;28;20228;-57
2021/11/30 08:05:37;;;;;;;11.57;8.25;;;3.50;99.90;;;;;;5030637;28;20214;-57
2021/11/30 08:08:04;;;;;;;12.18;8.82;;;3.60;99.90;;;;;;5032643;28;20408;-55
2021/11/30 08:10:32;;;;;;;12.38;8.65;;;3.50;99.90;;;;;;5023408;28;20586;-56
2021/11/30 08:13:00;;;;;;;9.82;7.30;;;3.40;99.90;;;;;;5022704;28;20196;-57
2021/11/30 08:15:27;;;;;;;11.25;8.07;;;3.20;99.90;;;;;;5032223;28;20236;-57
2021/11/30 08:18:00;;;;;;;11.20;7.05;;;3.10;99.90;;;;;;5040040;28;20205;-54
2021/11/30 08:20:28;;;;;;;15.75;7.68;;;3.20;99.90;;;;;;5039657;28;20247;-58
2021/11/30 08:22:56;;;;;;;8.40;6.75;;;3.30;99.90;;;;;;5039641;28;20360;-57
2021/11/30 08:25:24;;;;;;;8.85;6.90;;;3.60;99.90;;;;;;5039423;28;20197;-58
2021/11/30 08:27:52;;;;;;;13.30;7.75;;;3.60;99.90;;;;;;5039665;28;20225;-59
2021/11/30 08:30:40;;;;;;;8.30;7.03;;;3.60;99.90;;;;;;5039162;28;20213;-57
2021/11/30 08:33:08;;;;;;;9.75;5.78;;;3.60;99.90;;;;;;5035751;28;20502;-56
2021/11/30 08:35:35;;;;;;;7.25;5.97;;;3.60;99.90;;;;;;5029648;28;20235;-53
2021/11/30 08:38:04;;;;;;;7.82;6.53;;;3.50;99.90;;;;;;5038728;28;20466;-55
2021/11/30 08:40:32;;;;;;;8.00;5.80;;;3.50;99.90;;;;;;5038766;28;20228;-57
2021/11/30 08:42:59;;;;;;;10.35;7.07;;;3.60;99.90;;;;;;5038795;28;20208;-55
2021/11/30 08:45:27;;;;;;;9.50;6.57;;;3.80;99.90;;;;;;5036971;28;20213;-50
2021/11/30 08:47:54;;;;;;;9.35;6.30;;;3.80;99.90;;;;;;5025489;28;20231;-57
2021/11/30 08:50:23;;;;;;;9.02;6.30;;;3.70;99.90;;;;;;5027819;28;20224;-57
2021/11/30 08:52:50;;;;;;;6.57;5.88;;;3.70;99.90;;;;;;5027026;28;20519;-58
2021/11/30 08:55:19;;;;;;;5.10;4.55;;;3.80;99.90;;;;;;5025514;28;20205;-60
2021/11/30 08:57:46;;;;;;;5.00;4.60;;;3.70;99.90;;;;;;5030500;28;20259;-58
2021/11/30 09:00:21;;;;;;;8.68;5.38;;;3.60;99.90;;;;;;5025964;28;20221;-54
2021/11/30 09:02:50;;;;;;;5.85;4.85;;;3.60;99.90;;;;;;5033825;28;20432;-56
2021/11/30 09:05:21;;;;;;;8.82;5.45;;;3.40;99.90;;;;;;5033903;28;20201;-57
2021/11/30 09:07:50;;;;;;;7.63;5.38;;;3.20;99.90;;;;;;5030927;28;20227;-56
2021/11/30 09:10:19;;;;;;;9.63;4.70;;;3.20;99.90;;;;;;5038862;28;20216;-58
2021/11/30 09:12:46;;;;;;;10.60;7.05;;;3.20;99.90;;;;;;5036979;28;20252;-57
2021/11/30 09:15:14;;;;;;;7.25;4.95;;;3.30;99.90;;;;;;5042188;28;20238;-55
2021/11/30 09:17:49;;;;;;;7.97;5.05;;;3.30;99.90;;;;;;5041995;28;20459;-53
2021/11/30 09:20:17;;;;;;;8.70;5.75;;;3.60;99.90;;;;;;5041415;28;20225;-55
2021/11/30 09:22:45;;;;;;;7.53;4.68;;;3.70;99.90;;;;;;5033749;28;20240;-56
2021/11/30 09:25:12;;;;;;;7.60;5.20;;;4.00;99.90;;;;;;5042131;28;20435;-53
2021/11/30 09:27:40;;;;;;;6.97;5.60;;;4.10;99.90;;;;;;5041953;28;20221;-53
2021/11/30 09:30:09;;;;;;;7.90;5.00;;;4.20;99.90;;;;;;5035017;28;20230;-57
2021/11/30 09:32:39;;;;;;;7.60;5.40;;;4.30;99.90;;;;;;5022272;28;20310;-54
2021/11/30 09:35:09;;;;;;;6.35;4.03;;;4.30;99.90;;;;;;5036593;28;20292;-56
2021/11/30 09:37:38;;;;;;;7.10;5.20;;;4.40;99.90;;;;;;5024939;28;20203;-54
2021/11/30 09:40:07;;;;;;;7.55;4.53;;;4.40;99.90;;;;;;5024533;28;20259;-59
2021/11/30 09:42:35;;;;;;;5.85;4.22;;;4.50;99.90;;;;;;5025451;28;20241;-57
2021/11/30 09:45:09;;;;;;;5.63;4.72;;;4.50;99.90;;;;;;5025562;28;20494;-56
2021/11/30 09:47:39;;;;;;;6.22;4.10;;;4.50;99.90;;;;;;5027781;28;20359;-57
2021/11/30 09:50:09;;;;;;;7.70;5.60;;;4.70;99.90;;;;;;5023990;28;20257;-55
2021/11/30 09:52:37;;;;;;;5.53;4.68;;;4.60;99.90;;;;;;5026611;28;20274;-58
2021/11/30 09:55:06;;;;;;;6.55;4.30;;;4.60;99.90;;;;;;5025541;28;20207;-56
2021/11/30 09:57:34;;;;;;;6.85;5.15;;;4.60;99.90;;;;;;5035942;28;20518;-54
2021/11/30 10:00:03;;;;;;;7.50;5.20;;;4.60;99.90;;;;;;5028187;28;20218;-58
2021/11/30 10:02:51;;;;;;;5.30;3.60;;;4.60;99.90;;;;;;5034402;28;20190;-56
2021/11/30 10:05:19;;;;;;;4.65;3.35;;;4.70;99.90;;;;;;5041073;28;20197;-56
2021/11/30 10:07:50;;;;;;;5.03;4.07;;;4.70;99.90;;;;;;5041064;28;20369;-58
2021/11/30 10:10:17;;;;;;;5.43;4.47;;;4.60;99.90;;;;;;5041029;28;20220;-54
2021/11/30 10:12:53;;;;;;;5.57;4.65;;;4.60;99.90;;;;;;5040895;28;20250;-56
2021/11/30 10:15:21;;;;;;;5.95;3.95;;;4.70;99.90;;;;;;5042467;28;20204;-59
2021/11/30 10:17:48;;;;;;;4.53;4.13;;;4.70;99.90;;;;;;5043217;28;20203;-58
2021/11/30 10:20:18;;;;;;;2.70;2.50;;;4.80;99.90;;;;;;5040373;28;20749;-50
2021/11/30 10:22:48;;;;;;;3.35;2.88;;;4.90;99.90;;;;;;5039845;28;20203;-54
2021/11/30 10:25:22;;;;;;;4.57;3.10;;;5.00;99.90;;;;;;5032693;28;20596;-54
2021/11/30 10:27:55;;;;;;;3.50;3.20;;;4.80;99.90;;;;;;5020764;28;20574;-54
2021/11/30 10:30:26;;;;;;;5.68;3.97;;;4.80;99.90;;;;;;5020364;28;20595;-56
2021/11/30 10:32:56;;;;;;;4.35;3.65;;;4.80;99.90;;;;;;5035783;28;20204;-53
2021/11/30 10:35:26;;;;;;;4.10;3.40;;;4.60;99.90;;;;;;5023202;28;20197;-54
2021/11/30 10:37:57;;;;;;;3.50;3.20;;;4.70;99.90;;;;;;5021105;28;20265;-53
2021/11/30 10:40:27;;;;;;;3.22;3.03;;;4.70;99.90;;;;;;5020508;28;20223;-57
2021/11/30 10:42:57;;;;;;;8.10;4.22;;;4.60;99.90;;;;;;5020526;28;20538;-57
2021/11/30 10:45:26;;;;;;;4.15;3.60;;;4.50;99.90;;;;;;5003878;28;20192;-55
2021/11/30 10:48:07;;;;;;;4.95;3.17;;;4.60;99.90;;;;;;5020639;28;20225;-56
2021/11/30 10:50:41;;;;;;;3.47;2.92;;;4.60;99.90;;;;;;5021040;28;20223;-57
2021/11/30 10:53:23;;;;;;;4.00;3.70;;;4.60;99.90;;;;;;5019541;28;20197;-53
2021/11/30 10:55:57;;;;;;;5.30;3.70;;;4.60;99.90;;;;;;5020758;28;20255;-57
2021/11/30 10:58:30;;;;;;;3.50;3.20;;;4.70;99.90;;;;;;5020190;28;20514;-57
2021/11/30 11:01:01;;;;;;;3.33;3.03;;;4.50;99.90;;;;;;5020681;28;20231;-53
2021/11/30 11:03:28;;;;;;;3.17;2.85;;;4.50;99.90;;;;;;5029329;28;20199;-55
2021/11/30 11:08:46;;;;;;;3.15;2.95;;;4.60;99.90;;;;;;5039020;28;20221;-56
2021/11/30 11:11:21;;;;;;;4.15;2.90;;;4.50;99.90;;;;;;5038735;28;20497;-52
2021/11/30 11:13:49;;;;;;;4.03;3.13;;;4.50;99.90;;;;;;5038825;28;20203;-57
2021/11/30 11:16:35;;;;;;;3.88;2.78;;;4.30;99.90;;;;;;5039240;28;20193;-55
2021/11/30 11:19:08;;;;;;;3.60;3.25;;;4.30;99.90;;;;;;5037704;28;20220;-52
2021/11/30 11:21:38;;;;;;;2.97;2.55;;;4.20;99.90;;;;;;5039166;28;20210;-53
2021/11/30 11:24:17;;;;;;;3.08;2.70;;;4.20;99.90;;;;;;5038832;28;20239;-53
2021/11/30 11:26:50;;;;;;;3.53;2.80;;;4.30;99.90;;;;;;5038175;28;20203;-53
2021/11/30 11:29:20;;;;;;;3.85;2.60;;;4.30;99.90;;;;;;5030451;28;20235;-54
2021/11/30 11:31:51;;;;;;;2.88;2.53;;;4.30;99.90;;;;;;5019963;28;20205;-55
2021/11/30 11:34:21;;;;;;;5.93;3.72;;;4.40;99.90;;;;;;5028781;28;20199;-55
2021/11/30 11:36:50;;;;;;;3.50;3.20;;;4.30;99.90;;;;;;5019095;28;20224;-55
2021/11/30 11:39:20;;;;;;;3.60;3.00;;;4.20;99.90;;;;;;5018235;28;20218;-53
2021/11/30 11:41:53;;;;;;;3.65;2.28;;;4.00;99.90;;;;;;5019364;28;20249;-56
2021/11/30 11:44:21;;;;;;;4.32;2.80;;;3.80;99.90;;;;;;5019999;28;20261;-54
2021/11/30 11:46:52;;;;;;;4.03;3.00;;;3.70;99.90;;;;;;5021237;28;20206;-58
2021/11/30 11:49:22;;;;;;;4.55;3.63;;;3.70;99.90;;;;;;5019418;28;20542;-57
2021/11/30 11:51:55;;;;;;;3.45;2.70;;;3.60;99.90;;;;;;5019441;28;20212;-57
2021/11/30 11:54:30;;;;;;;2.83;2.63;;;3.60;99.90;;;;;;5019390;28;20210;-55
2021/11/30 11:57:09;;;;;;;2.60;2.28;;;3.50;99.90;;;;;;5019272;28;20210;-57
2021/11/30 11:59:39;;;;;;;4.00;2.67;;;3.50;99.90;;;;;;5019197;28;20221;-53
2021/11/30 12:02:20;;;;;;;3.15;2.60;;;3.50;99.90;;;;;;5019980;28;20210;-57
2021/11/30 12:04:55;;;;;;;3.58;2.80;;;3.60;99.90;;;;;;5035188;28;20201;-55
2021/11/30 12:07:26;;;;;;;2.97;2.78;;;3.70;99.90;;;;;;5038865;28;20202;-49
2021/11/30 12:10:16;;;;;;;4.00;3.15;;;3.70;99.90;;;;;;5038723;28;20261;-54
2021/11/30 12:12:58;;;;;;;3.38;2.70;;;3.80;99.90;;;;;;5038975;28;20236;-53
2021/11/30 12:15:30;;;;;;;2.25;2.00;;;3.80;99.90;;;;;;5039059;28;20220;-55
2021/11/30 12:18:56;;;;;;;3.88;1.67;;;3.90;99.90;;;;;;5039460;28;20251;-56
2021/11/30 12:21:29;;;;;;;3.08;2.40;;;4.10;99.90;;;;;;4960229;28;20248;-52
2021/11/30 12:23:59;;;;;;;1.95;1.75;;;4.20;99.90;;;;;;4962202;29;20290;-56
2021/11/30 12:26:31;;;;;;;3.85;2.40;;;4.20;99.90;;;;;;5007692;28;20197;-57
2021/11/30 12:28:59;;;;;;;1.92;1.75;;;4.20;99.90;;;;;;5043388;28;20301;-56
2021/11/30 12:31:37;;;;;;;2.30;1.65;;;4.20;99.90;;;;;;5043500;28;20209;-57
2021/11/30 12:34:07;;;;;;;1.90;1.75;;;4.20;99.90;;;;;;5042761;28;20225;-55
2021/11/30 12:36:38;;;;;;;2.70;2.33;;;4.20;99.90;;;;;;5042838;28;20198;-56
2021/11/30 12:39:08;;;;;;;3.15;2.40;;;4.30;99.90;;;;;;5035545;28;20223;-55
2021/11/30 12:41:38;;;;;;;2.35;2.15;;;4.30;99.90;;;;;;5027584;28;20236;-55
2021/11/30 12:44:10;;;;;;;2.00;1.90;;;4.30;99.90;;;;;;5023013;28;20203;-56
2021/11/30 12:46:39;;;;;;;1.92;1.83;;;4.30;99.90;;;;;;5025663;28;20234;-55
2021/11/30 12:49:29;;;;;;;4.47;2.40;;;4.40;99.90;;;;;;5026807;28;20233;-56
2021/11/30 12:52:19;;;;;;;3.13;2.20;;;4.40;99.90;;;;;;5026885;28;20211;-56
2021/11/30 12:54:52;;;;;;;3.83;1.98;;;4.40;99.90;;;;;;5027389;28;20241;-56
2021/11/30 12:57:29;;;;;;;7.22;2.45;;;4.40;99.90;;;;;;5026541;28;20237;-52
2021/11/30 13:00:15;;;;;;;3.33;2.20;;;4.40;99.90;;;;;;5027654;28;20230;-55
2021/11/30 13:02:48;;;;;;;3.75;2.53;;;4.50;99.90;;;;;;5026499;28;20231;-57
2021/11/30 13:05:17;;;;;;;4.07;2.42;;;4.50;99.90;;;;;;5032293;28;20207;-56
2021/11/30 13:07:49;;;;;;;2.75;2.55;;;4.60;99.90;;;;;;5041548;28;20421;-52
2021/11/30 13:10:26;;;;;;;2.20;2.00;;;4.50;99.90;;;;;;5041873;28;20248;-56
2021/11/30 13:12:57;;;;;;;3.92;2.40;;;4.50;99.90;;;;;;5041465;28;20227;-57
2021/11/30 13:15:25;;;;;;;3.53;1.85;;;4.60;99.90;;;;;;5040884;28;20273;-55
2021/11/30 13:17:55;;;;;;;5.18;2.30;;;4.60;99.90;;;;;;5041477;28;20229;-57
2021/11/30 13:20:29;;;;;;;4.55;3.13;;;4.50;99.90;;;;;;5040880;28;20214;-54